Bunker Hill, IN (46914)

4:39 PM EDT on April 25, 2015 (GMT -0400)
Grissom Air Reserve Base | | Change Station
CLOSE
Current Station
Airport
Location: Peru,
Elevation: 810 ft
Nearby Weather Stations

Elev 810 ft 40.65 °N, 86.15 °W | Updated 44 minutes ago

Light Rain
Light Rain
44 °F
Feels Like 37 °F
N
16
Wind Variable Wind from ENE

Today
High -- | Low -- °F
--% Chance of Precip.
Yesterday
High -- | Low -- °F
Precip. -- in
6:51 AM 8:33 PM
Waxing Crescent, 49% visible
Pressure 29.70 in
Visibility 7.0 miles
Clouds Few 1500 ft
Overcast 6000 ft
Windchill 37 °F
Dew Point 42 °F
Humidity 90%
Rainfall 1.05 in
Snow Depth Not available.
UV 2 out of 12
Pollen 6.60 out of 12
Air Quality Not available.
Flu Activity Local Activity
METAR KGUS 251955Z 07014KT 7SM -RA FEW015 OVC060 07/05 A2969 RMK AO2A SLP058 P0007 T00680053

More Conditions Fewer Conditions

Pressure 29.70 in
Visibility 7.0 miles
Clouds Few 1500 ft
Overcast 6000 ft
Windchill 37 °F
Dew Point 42 °F
Humidity 90%
Rainfall 1.05 in
Snow Depth Not available.
UV 2 out of 12
Pollen 6.60 out of 12
Air Quality Not available.
Flu Activity Local Activity
METAR KGUS 251955Z 07014KT 7SM -RA FEW015 OVC060 07/05 A2969 RMK AO2A SLP058 P0007 T00680053

More Conditions Fewer Conditions

10-Day Weather Forecast

Almanac

Astronomy

Apr. 25, 2015 Rise Set
Actual Time
Civil Twilight
Nautical Twilight
Astronomical Twilight
Moon
Length of Visible Light
Length of Day
Tomorrow will be .
, % of the Moon is Illuminated

Today's Extremes

State Highs State Lows

Community

WunderPhotos

Upload Photos

1,816,798 photos uploaded!

WunderBlogs® & News

Nearby

Air Quality

  Air Quality AQ Index Pollutant
Not available.

Snow Depth

Station Depth Elevation

Earthquake Activity

City Distance Mag. Time & Date
Minimum magnitude displayed is 2.5.

Coastal Water Temperatures

Place Temperature

Stations

Nearby Weather Stations

Station Location Temp. Windchill Dew Point Humidity Wind Precip. Elev Updated Type